createdAt,value
2018-04-15T00:00:27.078Z,13.70
2018-04-15T00:02:54.661Z,13.68
2018-04-15T00:05:22.192Z,13.68
2018-04-15T00:07:49.727Z,13.51
2018-04-15T00:10:17.258Z,13.57
2018-04-15T00:12:44.869Z,13.54
2018-04-15T00:15:12.486Z,13.64
2018-04-15T00:17:40.045Z,13.65
2018-04-15T00:20:07.556Z,13.55
2018-04-15T00:22:35.809Z,13.57
2018-04-15T00:25:03.377Z,13.52
2018-04-15T00:27:30.941Z,13.44
2018-04-15T00:29:58.481Z,13.37
2018-04-15T00:32:26.339Z,13.32
2018-04-15T00:34:53.939Z,13.32
2018-04-15T00:37:21.498Z,13.28
2018-04-15T00:39:49.034Z,13.25
2018-04-15T00:42:16.690Z,13.19
2018-04-15T00:44:44.234Z,13.20
2018-04-15T00:47:11.766Z,13.22
2018-04-15T00:49:39.286Z,13.23
2018-04-15T00:52:27.880Z,13.21
2018-04-15T00:54:55.461Z,13.18
2018-04-15T00:57:23.077Z,13.13
2018-04-15T00:59:50.613Z,13.09
2018-04-15T01:02:18.138Z,13.05
2018-04-15T01:04:45.690Z,13.05
2018-04-15T01:07:13.250Z,12.96
2018-04-15T01:09:40.805Z,12.97
2018-04-15T01:12:08.368Z,12.95
2018-04-15T01:14:35.972Z,12.99
2018-04-15T01:17:03.556Z,12.97
2018-04-15T01:19:31.117Z,12.93
2018-04-15T01:21:58.669Z,12.98
2018-04-15T01:24:26.200Z,12.87
2018-04-15T01:26:53.715Z,12.89
2018-04-15T01:29:21.287Z,12.90
2018-04-15T01:31:48.787Z,12.97
2018-04-15T01:34:16.347Z,12.95
2018-04-15T01:36:43.898Z,12.97
2018-04-15T01:39:11.655Z,12.95
2018-04-15T01:41:39.186Z,12.89
2018-04-15T01:44:06.746Z,12.80
2018-04-15T01:46:34.325Z,12.82
2018-04-15T01:49:01.885Z,12.78
2018-04-15T01:51:29.399Z,12.80
2018-04-15T01:53:57.028Z,12.81
2018-04-15T01:56:24.530Z,12.84
2018-04-15T01:58:52.059Z,12.81
2018-04-15T02:01:19.587Z,12.80
2018-04-15T02:03:47.154Z,12.79
2018-04-15T02:06:14.707Z,12.79
2018-04-15T02:08:42.293Z,12.76
2018-04-15T02:11:09.846Z,12.76
2018-04-15T02:13:37.393Z,12.72
2018-04-15T02:16:04.975Z,12.67
2018-04-15T02:18:32.483Z,12.71
2018-04-15T02:21:00.035Z,12.73
2018-04-15T02:23:27.598Z,12.72
2018-04-15T02:25:55.151Z,12.70
2018-04-15T02:28:22.733Z,12.68
2018-04-15T02:30:50.286Z,12.65
2018-04-15T02:33:17.814Z,12.66
2018-04-15T02:35:45.420Z,12.61
2018-04-15T02:38:13.001Z,12.57
2018-04-15T02:40:40.547Z,12.56
2018-04-15T02:43:08.114Z,12.56
2018-04-15T02:45:35.649Z,12.52
2018-04-15T02:48:03.196Z,12.56
2018-04-15T02:50:30.752Z,12.57
2018-04-15T02:52:58.324Z,12.54
2018-04-15T02:55:25.859Z,12.58
2018-04-15T02:57:53.391Z,12.55
2018-04-15T03:00:20.967Z,12.48
2018-04-15T03:02:48.488Z,12.51
2018-04-15T03:05:16.053Z,12.51
2018-04-15T03:07:43.584Z,12.52
2018-04-15T03:10:11.161Z,12.50
2018-04-15T03:12:38.697Z,12.48
2018-04-15T03:15:06.267Z,12.49
2018-04-15T03:17:33.790Z,12.50
2018-04-15T03:20:01.390Z,12.49
2018-04-15T03:22:28.903Z,12.53
2018-04-15T03:24:56.482Z,12.51
2018-04-15T03:27:23.995Z,12.52
2018-04-15T03:29:51.530Z,12.54
2018-04-15T03:32:19.030Z,12.56
2018-04-15T03:34:46.598Z,12.56
2018-04-15T03:37:14.162Z,12.52
2018-04-15T03:39:41.674Z,12.51
2018-04-15T03:42:09.193Z,12.47
2018-04-15T03:44:36.715Z,12.49
2018-04-15T03:47:04.249Z,12.52
2018-04-15T03:49:31.777Z,12.50
2018-04-15T03:51:59.380Z,12.51
2018-04-15T03:54:26.909Z,12.48
2018-04-15T03:56:54.458Z,12.46
2018-04-15T03:59:21.945Z,12.47
2018-04-15T04:01:49.490Z,12.48
2018-04-15T04:04:17.074Z,12.41
2018-04-15T04:06:44.603Z,12.41
2018-04-15T04:09:12.107Z,12.40
2018-04-15T04:11:39.664Z,12.38
2018-04-15T04:14:07.170Z,12.34
2018-04-15T04:16:34.709Z,12.36
2018-04-15T04:19:14.033Z,12.37
2018-04-15T04:21:53.304Z,12.35
2018-04-15T04:24:33.373Z,12.42
2018-04-15T04:27:00.971Z,12.33
2018-04-15T04:29:28.555Z,12.35
2018-04-15T04:31:56.131Z,12.34
2018-04-15T04:34:23.692Z,12.40
2018-04-15T04:36:51.218Z,12.42
2018-04-15T04:39:18.742Z,12.40
2018-04-15T04:41:46.295Z,12.39
2018-04-15T04:44:13.804Z,12.39
2018-04-15T04:46:41.386Z,12.37
2018-04-15T04:49:08.923Z,12.33
2018-04-15T04:51:36.483Z,12.32
2018-04-15T04:54:04.038Z,12.27
2018-04-15T04:56:31.564Z,12.29
2018-04-15T04:58:59.217Z,12.31
2018-04-15T05:01:26.788Z,12.31
2018-04-15T05:03:54.333Z,12.31
2018-04-15T05:06:21.865Z,12.31
2018-04-15T05:08:49.470Z,12.30
2018-04-15T05:11:17.038Z,12.31
2018-04-15T05:13:44.600Z,12.29
2018-04-15T05:16:12.152Z,12.31
2018-04-15T05:18:39.695Z,12.33
2018-04-15T05:21:07.218Z,12.38
2018-04-15T05:23:34.785Z,12.43
2018-04-15T05:26:02.379Z,12.48
2018-04-15T05:28:29.961Z,12.54
2018-04-15T05:30:57.487Z,12.55
2018-04-15T05:33:25.030Z,12.54
2018-04-15T05:35:52.574Z,12.52
2018-04-15T05:38:20.142Z,12.49
2018-04-15T05:40:47.661Z,12.45
2018-04-15T05:43:15.214Z,12.40
2018-04-15T05:45:42.746Z,12.33
2018-04-15T05:48:10.282Z,12.31
2018-04-15T05:50:37.838Z,12.34
2018-04-15T05:53:05.422Z,12.34
2018-04-15T05:55:32.937Z,12.35
2018-04-15T05:58:00.505Z,12.36
2018-04-15T06:00:28.054Z,12.43
2018-04-15T06:02:55.627Z,12.50
2018-04-15T06:05:23.191Z,12.66
2018-04-15T06:07:50.759Z,12.75
2018-04-15T06:10:18.263Z,12.94
2018-04-15T06:12:45.835Z,13.10
2018-04-15T06:15:13.322Z,13.08
2018-04-15T06:17:40.887Z,13.08
2018-04-15T06:20:08.408Z,13.11
2018-04-15T06:22:35.990Z,13.14
2018-04-15T06:25:03.842Z,13.17
2018-04-15T06:27:31.402Z,13.38
2018-04-15T06:29:58.934Z,13.63
2018-04-15T06:32:26.469Z,13.79
2018-04-15T06:34:53.967Z,13.85
2018-04-15T06:37:27.793Z,13.83
2018-04-15T06:39:55.315Z,13.88
2018-04-15T06:42:22.839Z,13.85
2018-04-15T06:44:50.376Z,13.94
2018-04-15T06:47:17.931Z,13.95
2018-04-15T06:49:45.471Z,13.97
2018-04-15T06:52:12.995Z,14.00
2018-04-15T06:54:40.552Z,13.96
2018-04-15T06:57:08.141Z,14.13
2018-04-15T06:59:35.742Z,14.10
2018-04-15T07:02:03.305Z,14.16
2018-04-15T07:04:30.846Z,14.18
2018-04-15T07:06:58.366Z,14.15
2018-04-15T07:09:25.895Z,14.02
2018-04-15T07:11:53.442Z,14.39
2018-04-15T07:14:20.991Z,14.44
2018-04-15T07:16:48.498Z,14.29
2018-04-15T07:19:16.332Z,14.39
2018-04-15T07:21:43.947Z,14.52
2018-04-15T07:24:11.478Z,14.69
2018-04-15T07:26:39.109Z,14.94
2018-04-15T07:29:06.655Z,15.06
2018-04-15T07:31:34.185Z,15.30
2018-04-15T07:34:01.703Z,15.31
2018-04-15T07:36:29.252Z,14.95
2018-04-15T07:38:56.737Z,15.15
2018-04-15T07:41:24.242Z,15.40
2018-04-15T07:43:51.791Z,15.42
2018-04-15T07:46:19.315Z,15.34
2018-04-15T07:48:46.877Z,15.31
2018-04-15T07:51:14.430Z,15.51
2018-04-15T07:53:41.952Z,15.64
2018-04-15T07:56:09.496Z,15.60
2018-04-15T07:58:37.106Z,15.59
2018-04-15T08:01:04.598Z,15.72
2018-04-15T08:03:32.171Z,15.53
2018-04-15T08:05:59.715Z,15.99
2018-04-15T08:08:27.286Z,16.03
2018-04-15T08:10:54.814Z,16.46
2018-04-15T08:13:22.297Z,16.01
2018-04-15T08:15:49.874Z,16.48
2018-04-15T08:18:17.446Z,16.62
2018-04-15T08:20:44.993Z,16.90
2018-04-15T08:23:12.514Z,16.62
2018-04-15T08:25:40.092Z,17.32
2018-04-15T08:28:07.646Z,17.50
2018-04-15T08:30:35.160Z,16.71
2018-04-15T08:33:02.710Z,16.98
2018-04-15T08:35:30.534Z,16.50
2018-04-15T08:37:58.067Z,16.57
2018-04-15T08:40:25.603Z,17.12
2018-04-15T08:42:53.142Z,17.02
2018-04-15T08:45:20.674Z,16.95
2018-04-15T08:47:48.169Z,16.12
2018-04-15T08:50:15.699Z,15.95
2018-04-15T08:52:43.194Z,15.78
2018-04-15T08:55:10.721Z,15.84
2018-04-15T08:57:38.274Z,15.71
2018-04-15T09:00:05.781Z,15.67
2018-04-15T09:02:33.247Z,16.02
2018-04-15T09:05:00.774Z,16.12
2018-04-15T09:07:28.252Z,16.27
2018-04-15T09:09:55.761Z,15.83
2018-04-15T09:12:23.215Z,15.83
2018-04-15T09:14:50.716Z,15.94
2018-04-15T09:17:18.225Z,15.71
2018-04-15T09:19:45.957Z,15.87
2018-04-15T09:22:13.438Z,16.12
2018-04-15T09:24:40.920Z,16.29
2018-04-15T09:27:08.406Z,16.59
2018-04-15T09:29:35.905Z,16.47
2018-04-15T09:32:03.381Z,16.87
2018-04-15T09:34:30.849Z,16.52
2018-04-15T09:36:58.336Z,16.05
2018-04-15T09:39:25.790Z,16.11
2018-04-15T09:41:53.271Z,16.22
2018-04-15T09:44:20.738Z,16.23
2018-04-15T09:46:48.319Z,16.31
2018-04-15T09:49:15.781Z,16.01
2018-04-15T09:51:43.273Z,16.06
2018-04-15T09:54:10.730Z,16.19
2018-04-15T09:56:38.205Z,16.34
2018-04-15T09:59:05.663Z,16.49
2018-04-15T10:01:33.145Z,16.76
2018-04-15T10:04:00.677Z,16.76
2018-04-15T10:06:28.177Z,17.07
2018-04-15T10:08:55.638Z,17.11
2018-04-15T10:11:23.120Z,16.20
2018-04-15T10:13:50.587Z,16.16
2018-04-15T10:16:18.065Z,16.57
2018-04-15T10:18:45.527Z,16.84
2018-04-15T10:21:13.038Z,16.77
2018-04-15T10:23:40.547Z,17.17
2018-04-15T10:26:08.036Z,17.19
2018-04-15T10:28:35.498Z,17.38
2018-04-15T10:31:02.984Z,17.47
2018-04-15T10:33:30.437Z,18.11
2018-04-15T10:35:57.914Z,18.35
2018-04-15T10:38:25.373Z,18.57
2018-04-15T10:40:52.864Z,18.30
2018-04-15T10:43:20.346Z,17.61
2018-04-15T10:45:47.821Z,17.75
2018-04-15T10:48:15.293Z,17.59
2018-04-15T10:50:42.774Z,17.80
2018-04-15T10:53:10.238Z,18.12
2018-04-15T10:55:37.726Z,17.79
2018-04-15T10:58:05.196Z,17.82
2018-04-15T11:00:32.658Z,17.98
2018-04-15T11:03:00.153Z,17.90
2018-04-15T11:05:27.625Z,18.15
2018-04-15T11:07:55.110Z,18.31
2018-04-15T11:10:22.585Z,18.69
2018-04-15T11:12:50.063Z,18.96
2018-04-15T11:15:17.531Z,18.89
2018-04-15T11:17:45.022Z,18.98
2018-04-15T11:20:12.483Z,19.15
2018-04-15T11:22:39.974Z,19.08
2018-04-15T11:25:07.425Z,19.29
2018-04-15T11:27:34.907Z,18.91
2018-04-15T11:30:02.369Z,18.90
2018-04-15T11:32:29.863Z,19.24
2018-04-15T11:34:57.335Z,19.53
2018-04-15T11:37:24.809Z,19.65
2018-04-15T11:39:52.266Z,18.53
2018-04-15T11:42:19.757Z,18.90
2018-04-15T11:44:47.213Z,19.32
2018-04-15T11:47:14.702Z,19.72
2018-04-15T11:49:42.169Z,20.14
2018-04-15T11:52:09.657Z,19.92
2018-04-15T11:54:37.118Z,19.61
2018-04-15T11:57:04.619Z,19.28
2018-04-15T11:59:32.085Z,18.91
2018-04-15T12:01:59.568Z,19.15
2018-04-15T12:04:27.030Z,19.40
2018-04-15T12:06:54.517Z,18.82
2018-04-15T12:09:21.986Z,18.66
2018-04-15T12:11:49.491Z,19.00
2018-04-15T12:14:16.951Z,18.80
2018-04-15T12:16:44.456Z,18.99
2018-04-15T12:19:11.940Z,18.61
2018-04-15T12:21:39.423Z,18.75
2018-04-15T12:24:06.895Z,19.04
2018-04-15T12:26:34.383Z,19.70
2018-04-15T12:29:01.862Z,20.37
2018-04-15T12:31:29.326Z,20.22
2018-04-15T12:33:56.897Z,20.75
2018-04-15T12:36:24.383Z,21.23
2018-04-15T12:38:51.869Z,21.83
2018-04-15T12:41:19.324Z,21.25
2018-04-15T12:43:46.845Z,20.66
2018-04-15T12:46:14.301Z,21.32
2018-04-15T12:48:41.786Z,21.65
2018-04-15T12:51:09.254Z,22.18
2018-04-15T12:53:36.773Z,21.33
2018-04-15T12:56:04.259Z,20.84
2018-04-15T12:58:31.743Z,20.98
2018-04-15T13:00:59.213Z,21.38
2018-04-15T13:03:26.697Z,21.93
2018-04-15T13:05:54.206Z,22.42
2018-04-15T13:08:21.687Z,22.88
2018-04-15T13:10:49.142Z,23.38
2018-04-15T13:13:16.630Z,23.92
2018-04-15T13:15:44.081Z,24.20
2018-04-15T13:18:11.574Z,23.13
2018-04-15T13:20:39.037Z,23.52
2018-04-15T13:23:06.531Z,23.77
2018-04-15T13:25:33.985Z,25.86
2018-04-15T13:28:01.470Z,25.82
2018-04-15T13:30:28.934Z,25.78
2018-04-15T13:32:56.410Z,25.89
2018-04-15T13:35:23.880Z,26.49
2018-04-15T13:37:51.364Z,26.94
2018-04-15T13:40:18.899Z,28.42
2018-04-15T13:42:46.374Z,29.35
2018-04-15T13:45:14.186Z,30.00
2018-04-15T13:47:41.669Z,28.10
2018-04-15T13:50:09.159Z,27.58
2018-04-15T13:52:36.632Z,26.54
2018-04-15T13:55:04.140Z,26.35
2018-04-15T13:57:31.597Z,27.47
2018-04-15T13:59:59.229Z,27.71
2018-04-15T14:02:26.702Z,28.31
2018-04-15T14:04:54.188Z,30.23
2018-04-15T14:07:21.653Z,28.91
2018-04-15T14:09:49.134Z,29.41
2018-04-15T14:12:16.606Z,27.27
2018-04-15T14:14:44.099Z,27.21
2018-04-15T14:17:11.561Z,25.36
2018-04-15T14:19:39.042Z,25.97
2018-04-15T14:22:06.527Z,26.82
2018-04-15T14:24:34.009Z,23.55
2018-04-15T14:27:01.484Z,23.83
2018-04-15T14:29:28.961Z,22.42
2018-04-15T14:31:56.436Z,21.37
2018-04-15T14:34:23.934Z,21.21
2018-04-15T14:36:51.402Z,20.82
2018-04-15T14:39:18.887Z,22.14
2018-04-15T14:41:46.430Z,22.75
2018-04-15T14:44:13.960Z,24.76
2018-04-15T14:46:41.447Z,25.63
2018-04-15T14:49:09.170Z,25.54
2018-04-15T14:51:36.653Z,26.64
2018-04-15T14:54:04.131Z,27.16
2018-04-15T14:56:31.634Z,26.40
2018-04-15T14:58:59.116Z,26.43
2018-04-15T15:01:26.605Z,25.24
2018-04-15T15:03:54.096Z,25.66
2018-04-15T15:06:21.560Z,24.46
2018-04-15T15:08:49.037Z,23.23
2018-04-15T15:11:16.497Z,23.81
2018-04-15T15:13:43.994Z,22.73
2018-04-15T15:16:11.549Z,22.85
2018-04-15T15:18:39.018Z,22.27
2018-04-15T15:21:06.512Z,21.21
2018-04-15T15:23:33.988Z,21.12
2018-04-15T15:26:01.498Z,20.81
2018-04-15T15:28:29.016Z,20.89
2018-04-15T15:30:56.478Z,21.06
2018-04-15T15:33:23.951Z,21.06
2018-04-15T15:35:51.462Z,21.17
2018-04-15T15:38:18.928Z,21.18
2018-04-15T15:40:46.422Z,21.12
2018-04-15T15:43:13.886Z,21.20
2018-04-15T15:45:41.366Z,20.75
2018-04-15T15:48:08.886Z,20.70
2018-04-15T15:50:36.369Z,21.30
2018-04-15T15:53:03.828Z,20.77
2018-04-15T15:55:31.301Z,20.70
2018-04-15T15:57:58.760Z,20.87
2018-04-15T16:00:26.258Z,20.67
2018-04-15T16:02:53.721Z,20.33
2018-04-15T16:05:21.212Z,20.05
2018-04-15T16:07:48.669Z,20.39
2018-04-15T16:10:17.019Z,20.18
2018-04-15T16:12:44.485Z,20.45
2018-04-15T16:15:11.970Z,20.24
2018-04-15T16:17:39.420Z,20.60
2018-04-15T16:20:06.901Z,20.76
2018-04-15T16:22:34.365Z,20.74
2018-04-15T16:25:01.845Z,21.12
2018-04-15T16:27:29.318Z,20.91
2018-04-15T16:29:56.802Z,20.49
2018-04-15T16:32:24.265Z,20.70
2018-04-15T16:34:52.349Z,20.43
2018-04-15T16:37:20.961Z,20.17
2018-04-15T16:39:50.956Z,19.94
2018-04-15T16:42:18.414Z,19.75
2018-04-15T16:44:45.872Z,19.53
2018-04-15T16:47:13.601Z,19.53
2018-04-15T16:49:41.373Z,19.54
2018-04-15T16:52:08.862Z,19.38
2018-04-15T16:54:36.317Z,19.25
2018-04-15T16:57:03.797Z,18.92
2018-04-15T16:59:31.259Z,19.15
2018-04-15T17:01:58.813Z,19.06
2018-04-15T17:04:26.266Z,19.06
2018-04-15T17:06:53.761Z,19.01
2018-04-15T17:09:21.217Z,18.99
2018-04-15T17:11:48.707Z,18.99
2018-04-15T17:14:16.165Z,18.91
2018-04-15T17:16:43.651Z,18.81
2018-04-15T17:19:11.113Z,18.78
2018-04-15T17:21:39.202Z,18.69
2018-04-15T17:24:07.043Z,18.76
2018-04-15T17:26:34.719Z,18.60
2018-04-15T17:29:02.381Z,18.43
2018-04-15T17:31:30.026Z,18.40
2018-04-15T17:33:57.630Z,18.44
2018-04-15T17:36:25.149Z,18.24
2018-04-15T17:38:52.613Z,18.31
2018-04-15T17:41:20.149Z,18.29
2018-04-15T17:43:47.677Z,18.24
2018-04-15T17:46:15.158Z,18.19
2018-04-15T17:48:42.647Z,18.02
2018-04-15T17:51:10.110Z,17.87
2018-04-15T17:53:37.602Z,17.83
2018-04-15T17:56:05.062Z,17.67
2018-04-15T17:58:32.533Z,17.65
2018-04-15T18:00:59.998Z,17.62
2018-04-15T18:03:27.490Z,17.56
2018-04-15T18:05:54.953Z,17.45
2018-04-15T18:08:22.431Z,17.45
2018-04-15T18:10:49.896Z,17.29
2018-04-15T18:13:17.379Z,17.15
2018-04-15T18:15:44.834Z,17.10
2018-04-15T18:18:12.315Z,17.04
2018-04-15T18:20:39.771Z,16.94
2018-04-15T18:23:07.229Z,16.83
2018-04-15T18:25:34.713Z,16.65
2018-04-15T18:28:02.177Z,16.55
2018-04-15T18:30:29.661Z,16.44
2018-04-15T18:32:57.119Z,16.34
2018-04-15T18:35:24.602Z,16.24
2018-04-15T18:37:52.063Z,16.17
2018-04-15T18:40:19.554Z,16.09
2018-04-15T18:42:47.013Z,16.03
2018-04-15T18:45:14.507Z,15.96
2018-04-15T18:47:41.978Z,15.97
2018-04-15T18:50:09.517Z,15.84
2018-04-15T18:52:36.948Z,15.83
2018-04-15T18:55:04.422Z,15.80
2018-04-15T18:57:31.883Z,15.73
2018-04-15T18:59:59.369Z,15.68
2018-04-15T19:02:26.830Z,15.64
2018-04-15T19:04:54.306Z,15.57
2018-04-15T19:07:21.761Z,15.51
2018-04-15T19:09:49.257Z,15.48
2018-04-15T19:12:16.748Z,15.25
2018-04-15T19:14:44.229Z,15.11
2018-04-15T19:17:11.703Z,15.17
2018-04-15T19:19:39.193Z,15.24
2018-04-15T19:22:06.667Z,15.25
2018-04-15T19:24:34.142Z,15.23
2018-04-15T19:27:01.603Z,15.18
2018-04-15T19:29:29.090Z,15.07
2018-04-15T19:31:56.550Z,14.80
2018-04-15T19:34:24.037Z,14.82
2018-04-15T19:36:51.547Z,14.83
2018-04-15T19:39:19.025Z,14.81
2018-04-15T19:41:46.568Z,14.78
2018-04-15T19:44:14.065Z,14.76
2018-04-15T19:46:41.524Z,14.79
2018-04-15T19:49:09.011Z,14.73
2018-04-15T19:51:36.488Z,14.68
2018-04-15T19:54:03.977Z,14.62
2018-04-15T19:56:31.450Z,14.74
2018-04-15T19:58:58.935Z,14.81
2018-04-15T20:01:26.396Z,14.82
2018-04-15T20:03:53.873Z,14.79
2018-04-15T20:06:21.330Z,14.81
2018-04-15T20:08:48.813Z,14.77
2018-04-15T20:11:16.289Z,14.75
2018-04-15T20:13:43.797Z,14.68
2018-04-15T20:16:11.283Z,14.50
2018-04-15T20:18:38.758Z,14.60
2018-04-15T20:21:06.298Z,14.61
2018-04-15T20:23:33.795Z,14.63
2018-04-15T20:26:01.292Z,14.60
2018-04-15T20:28:28.762Z,14.61
2018-04-15T20:30:56.247Z,14.60
2018-04-15T20:33:23.705Z,14.51
2018-04-15T20:35:51.185Z,14.53
2018-04-15T20:38:18.670Z,14.73
2018-04-15T20:40:46.154Z,14.61
2018-04-15T20:43:13.618Z,14.48
2018-04-15T20:45:41.106Z,14.39
2018-04-15T20:48:08.566Z,14.45
2018-04-15T20:50:36.055Z,14.50
2018-04-15T20:53:03.515Z,14.43
2018-04-15T20:55:30.993Z,14.26
2018-04-15T20:57:58.482Z,14.28
2018-04-15T21:00:26.020Z,14.22
2018-04-15T21:02:53.482Z,14.14
2018-04-15T21:05:21.005Z,14.09
2018-04-15T21:07:48.483Z,14.10
2018-04-15T21:10:15.973Z,14.03
2018-04-15T21:12:43.432Z,14.15
2018-04-15T21:15:10.915Z,14.26
2018-04-15T21:17:38.369Z,14.29
2018-04-15T21:20:05.863Z,14.35
2018-04-15T21:22:33.326Z,14.26
2018-04-15T21:25:00.824Z,14.17
2018-04-15T21:27:28.298Z,14.17
2018-04-15T21:29:55.773Z,13.97
2018-04-15T21:32:23.230Z,13.98
2018-04-15T21:34:50.705Z,13.90
2018-04-15T21:37:18.166Z,13.85
2018-04-15T21:39:45.657Z,13.66
2018-04-15T21:42:13.113Z,13.57
2018-04-15T21:44:41.538Z,13.51
2018-04-15T21:47:09.046Z,13.44
2018-04-15T21:49:36.530Z,13.36
2018-04-15T21:52:03.994Z,13.29
2018-04-15T21:54:31.478Z,13.23
2018-04-15T21:56:58.949Z,13.21
2018-04-15T21:59:26.426Z,13.16
2018-04-15T22:01:53.877Z,13.13
2018-04-15T22:04:21.369Z,13.07
2018-04-15T22:06:48.831Z,13.08
2018-04-15T22:09:16.297Z,13.08
2018-04-15T22:11:55.552Z,13.00
2018-04-15T22:14:23.056Z,12.99
2018-04-15T22:16:50.513Z,12.98
2018-04-15T22:19:18.006Z,12.99
2018-04-15T22:21:45.469Z,12.97
2018-04-15T22:24:12.969Z,12.94
2018-04-15T22:26:40.421Z,12.87
2018-04-15T22:29:07.901Z,12.73
2018-04-15T22:31:35.361Z,12.69
2018-04-15T22:34:02.818Z,12.66
2018-04-15T22:36:30.299Z,12.63
2018-04-15T22:38:57.773Z,12.67
2018-04-15T22:41:25.247Z,12.53
2018-04-15T22:43:52.710Z,12.47
2018-04-15T22:46:20.186Z,12.34
2018-04-15T22:48:47.643Z,12.29
2018-04-15T22:51:15.133Z,12.22
2018-04-15T22:53:42.586Z,12.24
2018-04-15T22:56:10.066Z,12.26
2018-04-15T22:58:43.146Z,12.25
2018-04-15T23:01:10.618Z,12.21
2018-04-15T23:03:38.070Z,12.14
2018-04-15T23:06:05.560Z,12.16
2018-04-15T23:08:33.014Z,12.14
2018-04-15T23:11:00.490Z,12.14
2018-04-15T23:13:27.950Z,12.13
2018-04-15T23:15:55.460Z,12.13
2018-04-15T23:18:22.914Z,12.23
2018-04-15T23:20:50.391Z,12.16
2018-04-15T23:23:17.862Z,12.07
2018-04-15T23:25:45.353Z,12.02
2018-04-15T23:28:12.817Z,11.93
2018-04-15T23:30:40.289Z,11.99
2018-04-15T23:33:07.748Z,11.85
2018-04-15T23:35:35.233Z,11.78
2018-04-15T23:38:02.726Z,11.78
2018-04-15T23:40:30.213Z,11.79
2018-04-15T23:42:57.670Z,11.78
2018-04-15T23:45:25.169Z,11.79
2018-04-15T23:47:52.628Z,11.80
2018-04-15T23:50:20.135Z,11.81
2018-04-15T23:52:47.596Z,11.82
2018-04-15T23:55:15.087Z,11.67
2018-04-15T23:57:42.555Z,11.60
